createdAt,value
2019-06-26T00:01:10.176Z,99.90
2019-06-26T00:07:12.428Z,99.90
2019-06-26T00:13:25.795Z,99.90
2019-06-26T00:19:18.699Z,99.90
2019-06-26T00:25:21.157Z,99.90
2019-06-26T00:31:23.499Z,99.90
2019-06-26T00:37:25.683Z,99.90
2019-06-26T00:43:41.499Z,99.90
2019-06-26T00:49:32.819Z,99.90
2019-06-26T00:55:35.011Z,99.90
2019-06-26T01:01:37.305Z,99.90
2019-06-26T01:07:39.720Z,99.90
2019-06-26T01:13:57.100Z,99.90
2019-06-26T01:19:46.192Z,99.90
2019-06-26T01:25:48.367Z,99.90
2019-06-26T01:31:50.697Z,99.90
2019-06-26T01:37:52.844Z,99.90
2019-06-26T01:43:55.341Z,99.90
2019-06-26T01:49:57.528Z,99.90
2019-06-26T01:55:59.681Z,99.90
2019-06-26T02:02:01.805Z,99.90
2019-06-26T02:08:03.989Z,99.90
2019-06-26T02:14:06.648Z,99.90
2019-06-26T02:20:09.219Z,99.90
2019-06-26T02:26:11.611Z,99.90
2019-06-26T02:32:13.880Z,99.90
2019-06-26T02:38:16.175Z,99.90
2019-06-26T02:44:18.428Z,99.90
2019-06-26T02:50:22.878Z,99.90
2019-06-26T02:56:25.009Z,99.90
2019-06-26T03:02:27.324Z,99.90
2019-06-26T03:08:29.475Z,99.90
2019-06-26T03:14:31.685Z,99.90
2019-06-26T03:20:38.339Z,99.90
2019-06-26T03:26:40.527Z,99.90
2019-06-26T03:32:42.786Z,99.90
2019-06-26T03:38:44.955Z,99.90
2019-06-26T03:44:47.197Z,99.90
2019-06-26T03:50:50.207Z,99.90
2019-06-26T03:56:52.481Z,99.90
2019-06-26T04:02:54.682Z,99.90
2019-06-26T04:08:56.957Z,99.90
2019-06-26T04:14:59.226Z,99.90
2019-06-26T04:21:01.514Z,99.90
2019-06-26T04:27:03.736Z,99.90
2019-06-26T04:33:05.926Z,99.90
2019-06-26T04:39:08.085Z,99.90
2019-06-26T04:45:10.930Z,99.90
2019-06-26T04:51:13.121Z,99.90
2019-06-26T04:57:16.179Z,99.90
2019-06-26T05:03:18.367Z,98.20
2019-06-26T05:09:20.766Z,96.20
2019-06-26T05:15:22.931Z,94.40
2019-06-26T05:21:25.402Z,93.10
2019-06-26T05:27:27.575Z,92.10
2019-06-26T05:33:29.771Z,89.40
2019-06-26T05:39:31.905Z,84.50
2019-06-26T05:45:34.404Z,83.50
2019-06-26T05:51:36.656Z,81.10
2019-06-26T05:57:41.789Z,79.90
2019-06-26T06:03:44.555Z,75.30
2019-06-26T06:09:46.748Z,71.40
2019-06-26T06:15:48.889Z,69.20
2019-06-26T06:21:51.268Z,66.30
2019-06-26T06:27:53.453Z,68.70
2019-06-26T06:33:55.900Z,67.40
2019-06-26T06:39:58.229Z,63.80
2019-06-26T06:46:00.475Z,58.20
2019-06-26T06:52:02.769Z,57.10
2019-06-26T06:58:04.923Z,56.20
2019-06-26T07:04:07.110Z,58.50
2019-06-26T07:10:13.586Z,56.90
2019-06-26T07:16:16.044Z,55.70
2019-06-26T07:22:18.386Z,55.10
2019-06-26T07:28:20.476Z,52.80
2019-06-26T07:34:22.730Z,57.20
2019-06-26T07:40:25.085Z,58.00
2019-06-26T07:46:27.269Z,57.60
2019-06-26T07:52:29.497Z,57.90
2019-06-26T07:58:31.696Z,56.20
2019-06-26T08:04:33.867Z,56.00
2019-06-26T08:10:36.336Z,53.00
2019-06-26T08:16:38.542Z,53.30
2019-06-26T08:22:40.691Z,55.20
2019-06-26T08:28:42.890Z,54.20
2019-06-26T08:34:45.207Z,54.60
2019-06-26T08:40:47.437Z,54.50
2019-06-26T08:46:49.712Z,53.10
2019-06-26T08:52:51.978Z,52.80
2019-06-26T08:58:54.168Z,55.60
2019-06-26T09:04:56.663Z,53.20
2019-06-26T09:10:58.833Z,54.70
2019-06-26T09:17:01.273Z,55.30
2019-06-26T09:23:03.865Z,56.90
2019-06-26T09:29:06.091Z,57.70
2019-06-26T09:35:08.410Z,55.80
2019-06-26T09:41:10.542Z,53.90
2019-06-26T09:47:15.597Z,55.00
2019-06-26T09:53:16.866Z,54.70
2019-06-26T09:59:19.050Z,55.80
2019-06-26T10:05:21.857Z,56.70
2019-06-26T10:11:24.036Z,56.80
2019-06-26T10:17:26.263Z,57.80
2019-06-26T10:23:28.447Z,55.80
2019-06-26T10:29:30.668Z,57.60
2019-06-26T10:35:32.987Z,59.30
2019-06-26T10:41:35.136Z,60.60
2019-06-26T10:47:39.627Z,65.90
2019-06-26T10:53:41.394Z,65.20
2019-06-26T10:59:43.619Z,63.00
2019-06-26T11:05:45.738Z,63.60
2019-06-26T11:11:47.996Z,63.90
2019-06-26T11:17:50.140Z,65.30
2019-06-26T11:23:52.367Z,65.70
2019-06-26T11:29:54.584Z,64.10
2019-06-26T11:35:56.757Z,67.00
2019-06-26T11:41:59.117Z,67.30
2019-06-26T11:48:01.312Z,64.00
2019-06-26T11:54:03.703Z,70.60
2019-06-26T12:00:08.046Z,68.80
2019-06-26T12:06:18.221Z,68.30
2019-06-26T12:12:14.080Z,65.50
2019-06-26T12:18:16.477Z,67.70
2019-06-26T12:24:18.628Z,63.50
2019-06-26T12:30:21.517Z,61.30
2019-06-26T12:36:23.747Z,60.70
2019-06-26T12:42:25.955Z,62.90
2019-06-26T12:48:28.214Z,61.00
2019-06-26T12:54:30.398Z,59.60
2019-06-26T13:00:32.711Z,58.70
2019-06-26T13:06:35.179Z,58.90
2019-06-26T13:12:37.410Z,58.30
2019-06-26T13:18:39.566Z,58.60
2019-06-26T13:24:44.120Z,55.30
2019-06-26T13:30:45.790Z,56.10
2019-06-26T13:36:48.008Z,55.90
2019-06-26T13:42:50.168Z,54.00
2019-06-26T13:48:52.831Z,55.80
2019-06-26T13:54:57.277Z,49.70
2019-06-26T14:00:58.952Z,49.80
2019-06-26T14:07:01.121Z,49.50
2019-06-26T14:13:03.329Z,47.40
2019-06-26T14:19:05.535Z,51.40
2019-06-26T14:25:07.775Z,48.30
2019-06-26T14:31:10.071Z,45.70
2019-06-26T14:37:12.269Z,44.40
2019-06-26T14:43:14.543Z,44.40
2019-06-26T14:49:16.702Z,42.50
2019-06-26T14:55:19.016Z,44.60
2019-06-26T15:01:21.354Z,44.30
2019-06-26T15:07:23.487Z,45.00
2019-06-26T15:13:25.818Z,45.60
2019-06-26T15:19:28.018Z,45.50
2019-06-26T15:25:30.264Z,48.10
2019-06-26T15:31:32.565Z,48.30
2019-06-26T15:37:34.777Z,48.70
2019-06-26T15:43:37.176Z,48.90
2019-06-26T15:49:39.374Z,49.80
2019-06-26T15:55:41.595Z,49.10
2019-06-26T16:01:44.092Z,51.30
2019-06-26T16:07:46.318Z,51.50
2019-06-26T16:13:48.491Z,51.30
2019-06-26T16:19:50.716Z,46.90
2019-06-26T16:25:52.968Z,44.20
2019-06-26T16:31:55.310Z,45.30
2019-06-26T16:37:57.472Z,46.00
2019-06-26T16:43:59.844Z,46.50
2019-06-26T16:50:02.094Z,48.50
2019-06-26T16:56:04.283Z,48.30
2019-06-26T17:02:07.237Z,50.60
2019-06-26T17:08:09.484Z,53.00
2019-06-26T17:14:11.648Z,53.40
2019-06-26T17:20:14.603Z,55.00
2019-06-26T17:26:16.759Z,57.00
2019-06-26T17:32:19.079Z,59.40
2019-06-26T17:38:21.639Z,62.90
2019-06-26T17:44:23.771Z,68.50
2019-06-26T17:50:25.912Z,72.10
2019-06-26T17:56:28.074Z,75.90
2019-06-26T18:02:30.254Z,77.50
2019-06-26T18:08:32.470Z,78.60
2019-06-26T18:14:34.997Z,79.80
2019-06-26T18:20:37.305Z,84.20
2019-06-26T18:26:40.363Z,87.60
2019-06-26T18:32:42.716Z,91.30
2019-06-26T18:38:44.921Z,96.50
2019-06-26T18:44:47.214Z,99.90
2019-06-26T18:50:49.392Z,99.90
2019-06-26T18:56:51.741Z,99.90
2019-06-26T19:02:54.043Z,99.90
2019-06-26T19:08:56.375Z,99.90
2019-06-26T19:14:58.576Z,99.90
2019-06-26T19:21:00.740Z,99.90
2019-06-26T19:27:06.585Z,99.90
2019-06-26T19:33:07.067Z,99.90
2019-06-26T19:39:09.312Z,99.90
2019-06-26T19:45:12.095Z,99.90
2019-06-26T19:51:14.449Z,99.90
2019-06-26T19:57:16.621Z,99.90
2019-06-26T20:03:19.358Z,99.90
2019-06-26T20:09:21.469Z,99.90
2019-06-26T20:15:23.774Z,99.90
2019-06-26T20:21:25.879Z,99.90
2019-06-26T20:27:28.080Z,99.90
2019-06-26T20:33:30.454Z,99.90
2019-06-26T20:39:32.627Z,99.90
2019-06-26T20:45:34.820Z,99.90
2019-06-26T20:51:36.996Z,99.90
2019-06-26T20:57:39.185Z,99.90
2019-06-26T21:03:41.776Z,99.90
2019-06-26T21:09:44.006Z,99.90
2019-06-26T21:15:46.501Z,99.90
2019-06-26T21:21:48.698Z,99.90
2019-06-26T21:27:50.963Z,99.90
2019-06-26T21:33:53.139Z,99.90
2019-06-26T21:39:55.308Z,99.90
2019-06-26T21:45:57.562Z,99.90
2019-06-26T21:51:59.727Z,99.90
2019-06-26T21:58:02.233Z,99.90
2019-06-26T22:04:05.625Z,99.90
2019-06-26T22:10:08.375Z,99.90
2019-06-26T22:16:10.793Z,99.90
2019-06-26T22:22:13.068Z,99.90
2019-06-26T22:28:15.436Z,99.90
2019-06-26T22:34:17.591Z,99.90
2019-06-26T22:40:19.811Z,99.90
2019-06-26T22:46:22.167Z,99.90
2019-06-26T22:52:24.498Z,99.90
2019-06-26T22:58:26.882Z,99.90
2019-06-26T23:04:29.215Z,99.90
2019-06-26T23:10:31.440Z,99.90
2019-06-26T23:16:33.639Z,99.90
2019-06-26T23:22:35.893Z,99.90
2019-06-26T23:28:38.051Z,99.90
2019-06-26T23:34:40.241Z,99.90
2019-06-26T23:40:42.385Z,99.90
2019-06-26T23:46:44.687Z,99.90
2019-06-26T23:52:46.838Z,99.90
2019-06-26T23:58:49.189Z,99.90
